createdAt,value
2017-03-21T00:00:13.410Z,5.15
2017-03-21T00:01:12.459Z,5.17
2017-03-21T00:02:11.520Z,4.52
2017-03-21T00:03:10.611Z,4.87
2017-03-21T00:04:09.618Z,5.08
2017-03-21T00:05:08.660Z,5.13
2017-03-21T00:06:07.685Z,5.40
2017-03-21T00:07:06.645Z,5.13
2017-03-21T00:08:05.325Z,5.20
2017-03-21T00:09:04.461Z,4.62
2017-03-21T00:10:04.267Z,4.80
2017-03-21T00:12:22.894Z,5.70
2017-03-21T00:13:21.884Z,5.88
2017-03-21T00:14:20.873Z,6.38
2017-03-21T00:15:19.552Z,5.35
2017-03-21T00:16:18.632Z,5.37
2017-03-21T00:17:17.588Z,4.60
2017-03-21T00:18:16.228Z,5.55
2017-03-21T00:19:15.224Z,4.62
2017-03-21T00:20:14.187Z,5.23
2017-03-21T00:21:13.231Z,5.20
2017-03-21T00:22:12.284Z,5.90
2017-03-21T00:23:11.260Z,4.78
2017-03-21T00:24:10.325Z,5.10
2017-03-21T00:25:09.356Z,6.27
2017-03-21T00:26:08.336Z,4.83
2017-03-21T00:27:50.433Z,5.32
2017-03-21T00:28:49.416Z,4.53
2017-03-21T00:29:48.438Z,5.70
2017-03-21T00:30:46.987Z,5.35
2017-03-21T00:31:45.988Z,4.75
2017-03-21T00:32:44.638Z,4.30
2017-03-21T00:33:43.616Z,4.42
2017-03-21T00:34:42.600Z,4.68
2017-03-21T00:35:41.848Z,4.88
2017-03-21T00:36:40.852Z,5.12
2017-03-21T00:37:39.785Z,5.15
2017-03-21T00:38:38.809Z,4.82
2017-03-21T00:39:37.849Z,4.97
2017-03-21T00:40:36.846Z,5.02
2017-03-21T00:41:36.567Z,4.78
2017-03-21T00:42:35.589Z,5.23
2017-03-21T00:43:34.581Z,5.07
2017-03-21T00:44:33.589Z,5.23
2017-03-21T00:46:16.078Z,5.85
2017-03-21T00:47:15.134Z,5.48
2017-03-21T00:48:14.178Z,5.52
2017-03-21T00:49:13.102Z,5.27
2017-03-21T00:50:11.709Z,4.40
2017-03-21T00:51:10.699Z,5.67
2017-03-21T00:52:09.788Z,5.38
2017-03-21T00:53:08.801Z,5.02
2017-03-21T00:54:07.809Z,5.13
2017-03-21T00:55:06.792Z,4.98
2017-03-21T00:56:05.795Z,5.52
2017-03-21T00:57:04.792Z,4.72
2017-03-21T00:58:03.829Z,4.53
2017-03-21T00:59:02.858Z,5.33
2017-03-21T01:00:01.844Z,4.80
2017-03-21T01:01:00.908Z,5.48
2017-03-21T01:01:59.890Z,4.98
2017-03-21T01:02:58.969Z,5.02
2017-03-21T01:03:57.996Z,4.63
2017-03-21T01:04:57.077Z,5.53
2017-03-21T01:05:56.472Z,5.40
2017-03-21T01:06:55.056Z,5.17
2017-03-21T01:07:54.114Z,5.20
2017-03-21T01:08:53.147Z,5.30
2017-03-21T01:09:52.180Z,5.17
2017-03-21T01:10:50.760Z,5.43
2017-03-21T01:11:49.762Z,5.33
2017-03-21T01:12:48.808Z,5.48
2017-03-21T01:13:47.801Z,5.88
2017-03-21T01:14:46.808Z,5.27
2017-03-21T01:15:45.419Z,5.85
2017-03-21T01:16:44.476Z,4.72
2017-03-21T01:17:43.449Z,4.55
2017-03-21T01:18:42.064Z,6.18
2017-03-21T01:19:41.032Z,5.17
2017-03-21T01:20:40.032Z,5.42
2017-03-21T01:21:39.012Z,5.18
2017-03-21T01:22:38.132Z,5.83
2017-03-21T01:23:37.128Z,4.77
2017-03-21T01:24:35.681Z,5.03
2017-03-21T01:25:34.266Z,5.35
2017-03-21T01:26:33.313Z,4.98
2017-03-21T01:27:32.339Z,6.02
2017-03-21T01:28:31.010Z,4.73
2017-03-21T01:29:29.620Z,5.05
2017-03-21T01:30:28.600Z,5.48
2017-03-21T01:31:27.950Z,4.82
2017-03-21T01:32:26.878Z,5.15
2017-03-21T01:33:25.927Z,4.85
2017-03-21T01:34:24.894Z,4.90
2017-03-21T01:35:23.595Z,5.35
2017-03-21T01:36:22.576Z,4.45
2017-03-21T01:37:21.560Z,4.75
2017-03-21T01:38:20.551Z,5.72
2017-03-21T01:39:19.552Z,5.00
2017-03-21T01:40:18.520Z,4.85
2017-03-21T01:41:17.543Z,4.88
2017-03-21T01:42:16.569Z,5.15
2017-03-21T01:43:15.553Z,4.52
2017-03-21T01:44:14.537Z,6.10
2017-03-21T01:45:13.598Z,4.80
2017-03-21T01:46:12.595Z,5.15
2017-03-21T01:47:11.575Z,4.75
2017-03-21T01:48:10.556Z,4.85
2017-03-21T01:49:09.593Z,5.17
2017-03-21T01:50:09.027Z,4.73
2017-03-21T01:51:08.164Z,5.05
2017-03-21T01:52:07.236Z,5.13
2017-03-21T01:53:06.276Z,5.88
2017-03-21T01:54:05.296Z,5.20
2017-03-21T01:55:04.297Z,5.30
2017-03-21T01:56:02.876Z,4.80
2017-03-21T01:57:01.960Z,5.05
2017-03-21T01:58:00.702Z,5.30
2017-03-21T01:58:59.660Z,5.15
2017-03-21T01:59:58.624Z,4.82
2017-03-21T02:00:57.287Z,4.98
2017-03-21T02:01:56.305Z,5.43
2017-03-21T02:02:54.924Z,5.93
2017-03-21T02:03:53.926Z,5.17
2017-03-21T02:04:52.975Z,5.62
2017-03-21T02:05:52.125Z,5.38
2017-03-21T02:06:51.213Z,4.95
2017-03-21T02:07:50.146Z,5.22
2017-03-21T02:08:49.237Z,5.02
2017-03-21T02:09:48.272Z,5.33
2017-03-21T02:10:47.283Z,5.27
2017-03-21T02:11:46.316Z,5.12
2017-03-21T02:12:45.287Z,5.00
2017-03-21T02:13:44.416Z,5.50
2017-03-21T02:14:43.003Z,5.45
2017-03-21T02:15:42.056Z,4.83
2017-03-21T02:16:41.208Z,5.55
2017-03-21T02:17:40.244Z,5.70
2017-03-21T02:18:39.248Z,5.33
2017-03-21T02:19:38.285Z,5.73
2017-03-21T02:20:36.922Z,5.42
2017-03-21T02:21:35.989Z,5.33
2017-03-21T02:22:35.024Z,5.48
2017-03-21T02:23:34.029Z,6.03
2017-03-21T02:24:33.139Z,6.63
2017-03-21T02:25:32.127Z,5.48
2017-03-21T02:26:30.856Z,6.23
2017-03-21T02:27:29.919Z,5.57
2017-03-21T02:28:28.944Z,5.33
2017-03-21T02:29:28.058Z,5.25
2017-03-21T02:30:27.039Z,5.87
2017-03-21T02:31:26.060Z,5.72
2017-03-21T02:32:25.059Z,5.55
2017-03-21T02:33:23.741Z,5.70
2017-03-21T02:34:23.108Z,5.48
2017-03-21T02:35:22.168Z,5.55
2017-03-21T02:36:21.167Z,6.08
2017-03-21T02:37:20.204Z,5.90
2017-03-21T02:38:19.241Z,5.47
2017-03-21T02:39:18.273Z,6.42
2017-03-21T02:40:17.210Z,6.07
2017-03-21T02:41:16.202Z,5.18
2017-03-21T02:42:14.767Z,4.97
2017-03-21T02:43:13.757Z,5.90
2017-03-21T02:44:12.723Z,5.30
2017-03-21T02:45:11.747Z,5.10
2017-03-21T02:46:10.289Z,6.85
2017-03-21T02:47:09.407Z,5.53
2017-03-21T02:48:08.615Z,5.62
2017-03-21T02:49:07.232Z,4.18
2017-03-21T02:50:06.232Z,5.17
2017-03-21T02:51:05.257Z,5.33
2017-03-21T02:52:04.287Z,5.73
2017-03-21T02:53:09.988Z,5.35
2017-03-21T02:54:08.915Z,5.13
2017-03-21T02:55:07.979Z,5.12
2017-03-21T02:56:06.968Z,5.37
2017-03-21T02:57:05.950Z,5.08
2017-03-21T02:58:05.049Z,4.98
2017-03-21T02:59:04.068Z,5.28
2017-03-21T03:00:03.453Z,5.75
2017-03-21T03:01:02.447Z,5.50
2017-03-21T03:02:01.525Z,4.57
2017-03-21T03:03:00.517Z,5.30
2017-03-21T03:03:59.545Z,4.90
2017-03-21T03:04:58.159Z,4.52
2017-03-21T03:05:57.144Z,4.97
2017-03-21T03:06:56.172Z,5.10
2017-03-21T03:07:55.254Z,5.48
2017-03-21T03:08:53.848Z,5.33
2017-03-21T03:09:52.868Z,4.40
2017-03-21T03:10:51.890Z,5.03
2017-03-21T03:11:50.876Z,4.10
2017-03-21T03:12:49.888Z,4.62
2017-03-21T03:13:48.934Z,4.35
2017-03-21T03:14:47.950Z,5.13
2017-03-21T03:15:46.937Z,5.10
2017-03-21T03:16:45.532Z,4.50
2017-03-21T03:17:44.492Z,4.93
2017-03-21T03:18:43.104Z,5.13
2017-03-21T03:19:42.039Z,4.87
2017-03-21T03:20:41.050Z,4.75
2017-03-21T03:21:40.067Z,4.97
2017-03-21T03:22:39.089Z,4.42
2017-03-21T03:23:37.748Z,4.53
2017-03-21T03:24:36.787Z,4.32
2017-03-21T03:25:35.352Z,4.20
2017-03-21T03:26:34.699Z,4.98
2017-03-21T03:27:33.745Z,4.47
2017-03-21T03:28:32.707Z,4.25
2017-03-21T03:29:31.703Z,4.40
2017-03-21T03:30:30.695Z,5.82
2017-03-21T03:31:29.687Z,5.10
2017-03-21T03:32:28.275Z,4.58
2017-03-21T03:33:26.885Z,4.63
2017-03-21T03:34:25.972Z,5.23
2017-03-21T03:35:24.894Z,4.68
2017-03-21T03:36:23.907Z,4.97
2017-03-21T03:37:22.520Z,4.67
2017-03-21T03:38:21.549Z,5.88
2017-03-21T03:39:20.552Z,4.82
2017-03-21T03:40:19.253Z,4.93
2017-03-21T03:41:18.231Z,4.62
2017-03-21T03:42:17.302Z,4.70
2017-03-21T03:43:16.288Z,5.00
2017-03-21T03:44:15.302Z,4.78
2017-03-21T03:45:14.278Z,4.35
2017-03-21T03:46:13.297Z,4.90
2017-03-21T03:47:12.422Z,4.85
2017-03-21T03:48:11.483Z,4.48
2017-03-21T03:49:11.517Z,4.22
2017-03-21T03:50:10.530Z,4.42
2017-03-21T03:51:09.568Z,6.02
2017-03-21T03:52:08.153Z,5.33
2017-03-21T03:53:07.213Z,5.45
2017-03-21T03:54:05.788Z,5.20
2017-03-21T03:55:04.849Z,4.63
2017-03-21T03:56:03.896Z,5.83
2017-03-21T03:57:02.913Z,5.10
2017-03-21T03:58:01.903Z,5.00
2017-03-21T03:59:00.893Z,5.97
2017-03-21T03:59:59.556Z,4.47
2017-03-21T04:00:58.659Z,5.65
2017-03-21T04:01:57.354Z,5.45
2017-03-21T04:02:56.316Z,5.22
2017-03-21T04:03:55.308Z,5.52
2017-03-21T04:04:54.248Z,6.10
2017-03-21T04:05:52.856Z,5.15
2017-03-21T04:06:51.478Z,4.62
2017-03-21T04:07:50.064Z,5.07
2017-03-21T04:08:48.996Z,4.42
2017-03-21T04:09:48.001Z,5.22
2017-03-21T04:10:46.596Z,5.90
2017-03-21T04:11:45.611Z,4.47
2017-03-21T04:12:44.225Z,5.28
2017-03-21T04:13:43.385Z,5.32
2017-03-21T04:14:42.317Z,5.72
2017-03-21T04:15:41.375Z,6.10
2017-03-21T04:16:40.407Z,4.90
2017-03-21T04:17:39.377Z,4.85
2017-03-21T04:18:38.304Z,4.27
2017-03-21T04:19:37.345Z,5.27
2017-03-21T04:20:36.311Z,5.50
2017-03-21T04:21:35.695Z,5.03
2017-03-21T04:22:35.040Z,4.15
2017-03-21T04:23:34.073Z,4.55
2017-03-21T04:24:32.644Z,4.72
2017-03-21T04:25:31.263Z,4.98
2017-03-21T04:26:30.172Z,4.30
2017-03-21T04:27:28.812Z,4.75
2017-03-21T04:28:27.872Z,4.13
2017-03-21T04:29:26.892Z,4.60
2017-03-21T04:30:25.848Z,4.42
2017-03-21T04:31:24.827Z,4.80
2017-03-21T04:32:23.844Z,5.68
2017-03-21T04:33:22.837Z,5.35
2017-03-21T04:34:21.853Z,4.60
2017-03-21T04:35:20.495Z,4.58
2017-03-21T04:36:19.472Z,4.70
2017-03-21T04:37:18.451Z,4.32
2017-03-21T04:38:17.396Z,4.20
2017-03-21T04:39:16.793Z,4.40
2017-03-21T04:40:16.179Z,4.30
2017-03-21T04:41:15.535Z,4.07
2017-03-21T04:42:14.569Z,4.80
2017-03-21T04:43:13.153Z,5.20
2017-03-21T04:44:11.712Z,4.93
2017-03-21T04:45:10.680Z,4.63
2017-03-21T04:46:09.735Z,4.27
2017-03-21T04:47:08.793Z,4.80
2017-03-21T04:48:07.784Z,4.80
2017-03-21T04:49:06.815Z,4.78
2017-03-21T04:50:05.611Z,4.68
2017-03-21T04:51:04.180Z,4.68
2017-03-21T04:52:03.171Z,4.95
2017-03-21T04:53:02.211Z,4.78
2017-03-21T04:54:00.860Z,4.30
2017-03-21T04:54:59.458Z,4.02
2017-03-21T04:55:58.456Z,3.62
2017-03-21T04:56:57.435Z,4.43
2017-03-21T04:57:56.508Z,4.72
2017-03-21T04:58:55.532Z,3.77
2017-03-21T04:59:54.587Z,5.00
2017-03-21T05:00:53.126Z,4.67
2017-03-21T05:01:52.125Z,4.55
2017-03-21T05:02:51.127Z,5.07
2017-03-21T05:03:50.155Z,4.50
2017-03-21T05:04:49.160Z,4.13
2017-03-21T05:05:48.140Z,4.60
2017-03-21T05:06:47.119Z,4.20
2017-03-21T05:07:46.151Z,4.18
2017-03-21T05:08:45.198Z,4.23
2017-03-21T05:09:44.604Z,4.77
2017-03-21T05:10:43.643Z,4.33
2017-03-21T05:11:42.648Z,5.18
2017-03-21T05:12:41.669Z,4.20
2017-03-21T05:13:41.613Z,5.13
2017-03-21T05:14:40.672Z,4.75
2017-03-21T05:15:39.260Z,4.97
2017-03-21T05:16:38.256Z,4.10
2017-03-21T05:17:37.241Z,4.58
2017-03-21T05:18:36.213Z,4.42
2017-03-21T05:19:35.267Z,4.30
2017-03-21T05:20:34.295Z,5.45
2017-03-21T05:21:33.329Z,4.88
2017-03-21T05:22:32.368Z,5.50
2017-03-21T05:23:31.350Z,5.02
2017-03-21T05:24:30.454Z,4.90
2017-03-21T05:25:29.424Z,5.87
2017-03-21T05:26:28.420Z,5.67
2017-03-21T05:27:27.467Z,5.52
2017-03-21T05:28:26.467Z,6.20
2017-03-21T05:29:25.477Z,4.82
2017-03-21T05:30:24.420Z,4.52
2017-03-21T05:31:23.431Z,4.70
2017-03-21T05:32:22.013Z,5.45
2017-03-21T05:33:21.008Z,5.03
2017-03-21T05:34:20.032Z,4.97
2017-03-21T05:35:19.034Z,4.68
2017-03-21T05:36:18.037Z,4.50
2017-03-21T05:37:17.010Z,4.60
2017-03-21T05:38:15.630Z,4.87
2017-03-21T05:39:14.595Z,4.35
2017-03-21T05:40:13.672Z,4.40
2017-03-21T05:41:12.641Z,4.83
2017-03-21T05:42:11.998Z,5.13
2017-03-21T05:43:11.036Z,5.65
2017-03-21T05:44:09.636Z,4.18
2017-03-21T05:45:08.639Z,5.10
2017-03-21T05:46:07.223Z,4.95
2017-03-21T05:47:06.224Z,4.90
2017-03-21T05:48:05.179Z,5.28
2017-03-21T05:49:04.187Z,5.67
2017-03-21T05:50:03.220Z,5.53
2017-03-21T05:51:01.755Z,4.62
2017-03-21T05:52:00.764Z,4.65
2017-03-21T05:52:59.720Z,4.82
2017-03-21T05:53:58.368Z,5.15
2017-03-21T05:54:57.368Z,4.25
2017-03-21T05:55:56.347Z,4.88
2017-03-21T05:56:55.368Z,4.65
2017-03-21T05:57:54.360Z,4.87
2017-03-21T05:58:53.402Z,4.93
2017-03-21T05:59:52.028Z,4.38
2017-03-21T06:00:51.043Z,4.32
2017-03-21T06:01:50.060Z,4.53
2017-03-21T06:02:49.045Z,4.88
2017-03-21T06:03:47.985Z,5.02
2017-03-21T06:04:47.092Z,5.35
2017-03-21T06:05:46.056Z,5.70
2017-03-21T06:06:45.020Z,5.33
2017-03-21T06:07:44.009Z,4.58
2017-03-21T06:08:43.000Z,6.00
2017-03-21T06:09:41.965Z,5.10
2017-03-21T06:10:40.967Z,5.47
2017-03-21T06:11:39.987Z,5.13
2017-03-21T06:12:38.953Z,5.08
2017-03-21T06:13:38.074Z,5.27
2017-03-21T06:14:37.031Z,5.10
2017-03-21T06:15:36.052Z,5.07
2017-03-21T06:16:35.059Z,6.00
2017-03-21T06:17:34.080Z,5.35
2017-03-21T06:18:33.035Z,5.97
2017-03-21T06:19:32.077Z,5.07
2017-03-21T06:20:31.071Z,5.20
2017-03-21T06:21:30.059Z,4.58
2017-03-21T06:22:28.662Z,5.00
2017-03-21T06:23:27.660Z,5.25
2017-03-21T06:24:26.698Z,5.25
2017-03-21T06:25:25.667Z,4.90
2017-03-21T06:26:24.267Z,5.42
2017-03-21T06:27:23.224Z,5.15
2017-03-21T06:28:22.208Z,4.60
2017-03-21T06:29:21.161Z,5.18
2017-03-21T06:30:20.208Z,5.03
2017-03-21T06:31:19.211Z,4.82
2017-03-21T06:32:17.759Z,4.52
2017-03-21T06:33:16.761Z,5.05
2017-03-21T06:34:15.816Z,4.43
2017-03-21T06:35:15.188Z,4.95
2017-03-21T06:36:14.185Z,5.43
2017-03-21T06:37:13.169Z,4.73
2017-03-21T06:38:12.159Z,4.78
2017-03-21T06:39:11.163Z,5.30
2017-03-21T06:40:10.176Z,4.22
2017-03-21T06:41:09.227Z,4.35
2017-03-21T06:42:08.909Z,4.95
2017-03-21T06:43:07.884Z,4.93
2017-03-21T06:44:06.880Z,4.33
2017-03-21T06:45:05.884Z,5.20
2017-03-21T06:46:04.859Z,4.72
2017-03-21T06:47:03.885Z,4.98
2017-03-21T06:48:02.859Z,5.00
2017-03-21T06:49:01.823Z,5.12
2017-03-21T06:50:01.902Z,5.78
2017-03-21T06:51:01.512Z,5.22
2017-03-21T06:52:00.491Z,5.42
2017-03-21T06:52:59.096Z,4.83
2017-03-21T06:53:58.126Z,4.93
2017-03-21T06:54:57.116Z,4.48
2017-03-21T06:55:55.669Z,4.98
2017-03-21T06:56:54.573Z,4.82
2017-03-21T06:57:53.588Z,4.32
2017-03-21T06:58:52.624Z,5.47
2017-03-21T06:59:52.045Z,5.63
2017-03-21T07:00:50.963Z,4.38
2017-03-21T07:01:50.394Z,4.50
2017-03-21T07:02:49.732Z,5.15
2017-03-21T07:03:48.668Z,4.73
2017-03-21T07:04:47.747Z,4.78
2017-03-21T07:05:46.343Z,5.18
2017-03-21T07:06:45.503Z,5.58
2017-03-21T07:07:45.391Z,4.98
2017-03-21T07:08:44.348Z,4.87
2017-03-21T07:09:42.944Z,5.13
2017-03-21T07:10:41.940Z,5.27
2017-03-21T07:11:40.928Z,5.07
2017-03-21T07:12:39.927Z,4.63
2017-03-21T07:13:39.361Z,4.80
2017-03-21T07:14:38.390Z,5.20
2017-03-21T07:15:37.327Z,4.50
2017-03-21T07:16:36.366Z,4.88
2017-03-21T07:17:35.380Z,4.73
2017-03-21T07:18:34.032Z,5.00
2017-03-21T07:19:33.012Z,4.73
2017-03-21T07:20:31.979Z,4.58
2017-03-21T07:21:30.577Z,4.40
2017-03-21T07:22:29.637Z,5.05
2017-03-21T07:23:28.580Z,4.80
2017-03-21T07:24:27.601Z,4.37
2017-03-21T07:25:26.167Z,5.18
2017-03-21T07:26:25.161Z,4.62
2017-03-21T07:27:24.155Z,4.72
2017-03-21T07:28:22.791Z,4.55
2017-03-21T07:29:22.149Z,4.32
2017-03-21T07:30:21.143Z,4.80
2017-03-21T07:31:20.110Z,4.50
2017-03-21T07:32:19.100Z,4.63
2017-03-21T07:33:18.140Z,4.63
2017-03-21T07:34:18.376Z,4.25
2017-03-21T07:35:16.947Z,6.00
2017-03-21T07:36:15.940Z,5.53
2017-03-21T07:37:14.928Z,4.92
2017-03-21T07:38:13.929Z,5.00
2017-03-21T07:39:12.550Z,4.80
2017-03-21T07:40:11.580Z,5.10
2017-03-21T07:41:10.185Z,5.32
2017-03-21T07:42:09.291Z,4.57
2017-03-21T07:43:08.272Z,4.25
2017-03-21T07:44:06.881Z,4.50
2017-03-21T07:45:05.834Z,4.67
2017-03-21T07:46:04.802Z,4.77
2017-03-21T07:47:03.802Z,4.95
2017-03-21T07:48:02.809Z,5.68
2017-03-21T07:49:01.863Z,5.55
2017-03-21T07:50:00.812Z,4.25
2017-03-21T07:50:59.387Z,4.68
2017-03-21T07:51:58.340Z,5.92
2017-03-21T07:52:57.312Z,5.30
2017-03-21T07:53:55.915Z,4.88
2017-03-21T07:54:54.872Z,5.15
2017-03-21T07:55:53.919Z,5.17
2017-03-21T07:56:52.976Z,4.60
2017-03-21T07:57:52.016Z,4.23
2017-03-21T07:58:50.995Z,4.38
2017-03-21T07:59:50.039Z,4.55
2017-03-21T08:00:48.996Z,5.52
2017-03-21T08:01:47.566Z,5.55
2017-03-21T08:02:50.160Z,4.23
2017-03-21T08:03:49.726Z,4.65
2017-03-21T08:04:49.287Z,5.18
2017-03-21T08:05:48.686Z,4.43
2017-03-21T08:06:47.280Z,4.65
2017-03-21T08:07:45.868Z,5.47
2017-03-21T08:08:45.209Z,4.42
2017-03-21T08:09:44.192Z,4.18
2017-03-21T08:10:43.175Z,4.43
2017-03-21T08:11:41.792Z,5.25
2017-03-21T08:12:40.445Z,4.45
2017-03-21T08:13:39.405Z,4.25
2017-03-21T08:14:38.399Z,4.75
2017-03-21T08:15:37.369Z,5.32
2017-03-21T08:16:36.362Z,4.60
2017-03-21T08:17:35.359Z,4.25
2017-03-21T08:18:34.339Z,4.68
2017-03-21T08:19:33.349Z,5.28
2017-03-21T08:20:32.328Z,4.90
2017-03-21T08:21:31.242Z,4.72
2017-03-21T08:22:30.259Z,4.98
2017-03-21T08:23:29.335Z,4.85
2017-03-21T08:24:27.908Z,4.45
2017-03-21T08:25:27.631Z,4.35
2017-03-21T08:26:26.594Z,4.37
2017-03-21T08:27:25.601Z,4.12
2017-03-21T08:28:24.580Z,4.57
2017-03-21T08:29:23.605Z,4.48
2017-03-21T08:30:22.943Z,4.37
2017-03-21T08:31:21.611Z,5.03
2017-03-21T08:32:20.247Z,4.13
2017-03-21T08:33:19.267Z,4.37
2017-03-21T08:34:18.340Z,4.33
2017-03-21T08:35:17.364Z,4.38
2017-03-21T08:36:16.411Z,4.82
2017-03-21T08:37:15.399Z,5.03
2017-03-21T08:38:14.360Z,5.12
2017-03-21T08:39:13.372Z,5.00
2017-03-21T08:40:12.450Z,4.05
2017-03-21T08:41:11.072Z,4.27
2017-03-21T08:42:10.088Z,4.55
2017-03-21T08:43:09.107Z,4.58
2017-03-21T08:44:08.681Z,3.83
2017-03-21T08:45:07.625Z,5.17
2017-03-21T08:46:06.660Z,4.43
2017-03-21T08:47:05.660Z,5.08
2017-03-21T08:48:04.644Z,4.43
2017-03-21T08:49:03.198Z,4.27
2017-03-21T08:50:02.206Z,4.52
2017-03-21T08:51:01.466Z,4.62
2017-03-21T08:52:00.455Z,4.90
2017-03-21T08:52:59.455Z,4.60
2017-03-21T08:53:58.448Z,4.20
2017-03-21T08:54:57.039Z,4.60
2017-03-21T08:55:55.976Z,4.53
2017-03-21T08:56:54.985Z,4.27
2017-03-21T08:57:53.954Z,4.57
2017-03-21T08:58:52.910Z,4.05
2017-03-21T08:59:51.944Z,4.47
2017-03-21T09:00:50.946Z,4.08
2017-03-21T09:01:50.298Z,5.00
2017-03-21T09:02:49.275Z,4.57
2017-03-21T09:03:48.291Z,4.93
2017-03-21T09:04:47.268Z,5.00
2017-03-21T09:05:46.213Z,4.53
2017-03-21T09:06:45.352Z,4.63
2017-03-21T09:07:44.363Z,5.17
2017-03-21T09:08:43.023Z,5.27
2017-03-21T09:09:41.994Z,4.50
2017-03-21T09:10:40.972Z,4.85
2017-03-21T09:11:39.547Z,5.00
2017-03-21T09:12:38.573Z,5.33
2017-03-21T09:13:37.643Z,4.22
2017-03-21T09:14:36.631Z,4.47
2017-03-21T09:15:35.575Z,4.87
2017-03-21T09:16:34.556Z,4.88
2017-03-21T09:17:33.555Z,4.60
2017-03-21T09:18:32.580Z,4.42
2017-03-21T09:19:31.604Z,4.75
2017-03-21T09:20:30.631Z,4.52
2017-03-21T09:21:29.708Z,4.55
2017-03-21T09:22:28.256Z,4.47
2017-03-21T09:23:27.266Z,5.02
2017-03-21T09:24:26.237Z,4.63
2017-03-21T09:25:25.267Z,4.50
2017-03-21T09:26:24.252Z,4.18
2017-03-21T09:27:23.282Z,4.47
2017-03-21T09:28:22.248Z,4.12
2017-03-21T09:29:21.203Z,4.70
2017-03-21T09:30:20.141Z,6.75
2017-03-21T09:31:19.194Z,4.77
2017-03-21T09:32:20.384Z,4.92
2017-03-21T09:33:19.363Z,4.80
2017-03-21T09:34:18.380Z,4.27
2017-03-21T09:35:17.368Z,4.80
2017-03-21T09:36:16.444Z,4.57
2017-03-21T09:37:15.485Z,4.88
2017-03-21T09:38:15.174Z,4.98
2017-03-21T09:39:14.239Z,5.23
2017-03-21T09:40:12.811Z,4.65
2017-03-21T09:41:11.807Z,4.50
2017-03-21T09:42:10.757Z,4.80
2017-03-21T09:43:11.292Z,4.53
2017-03-21T09:44:10.276Z,4.78
2017-03-21T09:45:09.239Z,4.72
2017-03-21T09:46:08.221Z,4.88
2017-03-21T09:47:07.196Z,5.00
2017-03-21T09:48:06.227Z,4.83
2017-03-21T09:49:05.223Z,5.15
2017-03-21T09:50:04.272Z,5.18
2017-03-21T09:51:03.277Z,4.68
2017-03-21T09:52:02.211Z,4.85
2017-03-21T09:53:01.227Z,4.33
2017-03-21T09:54:00.232Z,4.33
2017-03-21T09:54:59.216Z,4.38
2017-03-21T09:55:58.204Z,4.38
2017-03-21T09:56:57.195Z,4.85
2017-03-21T09:57:56.212Z,4.50
2017-03-21T09:58:55.209Z,4.82
2017-03-21T09:59:54.172Z,4.60
2017-03-21T10:00:53.631Z,4.50
2017-03-21T10:01:52.655Z,4.60
2017-03-21T10:02:51.687Z,4.53
2017-03-21T10:03:50.693Z,4.57
2017-03-21T10:04:49.689Z,4.60
2017-03-21T10:05:48.628Z,4.43
2017-03-21T10:06:47.780Z,4.37
2017-03-21T10:07:47.207Z,4.98
2017-03-21T10:08:46.303Z,3.73
2017-03-21T10:09:45.259Z,4.62
2017-03-21T10:10:44.234Z,4.03
2017-03-21T10:11:43.263Z,4.10
2017-03-21T10:12:42.295Z,4.65
2017-03-21T10:13:41.266Z,4.00
2017-03-21T10:14:40.234Z,3.85
2017-03-21T10:15:39.235Z,4.17
2017-03-21T10:16:38.241Z,3.67
2017-03-21T10:17:37.235Z,4.08
2017-03-21T10:18:36.240Z,4.27
2017-03-21T10:19:35.207Z,3.93
2017-03-21T10:20:34.227Z,3.80
2017-03-21T10:21:33.207Z,4.20
2017-03-21T10:22:31.832Z,4.23
2017-03-21T10:23:30.871Z,4.07
2017-03-21T10:24:29.813Z,5.02
2017-03-21T10:25:28.835Z,4.10
2017-03-21T10:26:27.827Z,3.55
2017-03-21T10:27:26.828Z,4.15
2017-03-21T10:28:25.828Z,4.60
2017-03-21T10:29:24.876Z,3.62
2017-03-21T10:30:23.885Z,4.08
2017-03-21T10:31:22.923Z,3.93
2017-03-21T10:32:21.507Z,4.02
2017-03-21T10:33:20.572Z,4.25
2017-03-21T10:34:19.534Z,4.10
2017-03-21T10:35:18.618Z,3.47
2017-03-21T10:36:17.606Z,3.57
2017-03-21T10:37:16.208Z,3.80
2017-03-21T10:38:15.236Z,3.58
2017-03-21T10:39:15.834Z,3.47
2017-03-21T10:40:14.460Z,4.63
2017-03-21T10:41:13.511Z,3.92
2017-03-21T10:42:12.548Z,3.50
2017-03-21T10:43:11.536Z,3.70
2017-03-21T10:44:10.839Z,3.82
2017-03-21T10:45:09.962Z,4.27
2017-03-21T10:46:08.933Z,4.18
2017-03-21T10:47:07.996Z,3.75
2017-03-21T10:48:07.052Z,4.08
2017-03-21T10:49:07.870Z,3.90
2017-03-21T10:50:06.880Z,4.02
2017-03-21T10:51:05.851Z,4.32
2017-03-21T10:52:04.837Z,3.60
2017-03-21T10:53:03.428Z,3.45
2017-03-21T10:54:02.401Z,3.70
2017-03-21T10:55:01.419Z,3.35
2017-03-21T10:56:00.488Z,3.42
2017-03-21T10:56:59.547Z,3.80
2017-03-21T10:57:58.122Z,3.50
2017-03-21T10:58:57.115Z,3.75
2017-03-21T10:59:56.131Z,3.87
2017-03-21T11:00:55.073Z,3.85
2017-03-21T11:01:54.122Z,3.60
2017-03-21T11:02:53.105Z,3.72
2017-03-21T11:03:52.088Z,3.47
2017-03-21T11:04:51.090Z,4.37
2017-03-21T11:05:49.842Z,3.68
2017-03-21T11:06:49.238Z,3.45
2017-03-21T11:07:48.248Z,2.98
2017-03-21T11:08:47.224Z,3.30
2017-03-21T11:09:46.180Z,3.53
2017-03-21T11:10:45.231Z,3.77
2017-03-21T11:11:44.235Z,3.67
2017-03-21T11:12:43.211Z,3.98
2017-03-21T11:13:42.556Z,4.83
2017-03-21T11:14:41.532Z,3.00
2017-03-21T11:15:40.496Z,3.25
2017-03-21T11:16:39.474Z,3.92
2017-03-21T11:17:39.207Z,3.40
2017-03-21T11:18:38.177Z,3.23
2017-03-21T11:19:37.172Z,3.52
2017-03-21T11:20:35.792Z,3.27
2017-03-21T11:21:34.764Z,3.33
2017-03-21T11:22:33.728Z,3.00
2017-03-21T11:23:32.792Z,3.22
2017-03-21T11:24:31.771Z,3.40
2017-03-21T11:25:30.736Z,2.88
2017-03-21T11:26:29.723Z,2.88
2017-03-21T11:27:28.278Z,3.20
2017-03-21T11:28:27.311Z,3.03
2017-03-21T11:29:26.378Z,3.37
2017-03-21T11:30:25.364Z,3.35
2017-03-21T11:31:24.299Z,2.98
2017-03-21T11:32:22.907Z,3.35
2017-03-21T11:33:22.633Z,3.22
2017-03-21T11:34:21.620Z,3.58
2017-03-21T11:35:20.624Z,3.37
2017-03-21T11:36:19.684Z,3.90
2017-03-21T11:37:18.636Z,3.03
2017-03-21T11:38:17.241Z,3.80
2017-03-21T11:39:16.195Z,3.83
2017-03-21T11:40:14.920Z,3.98
2017-03-21T11:41:13.940Z,4.18
2017-03-21T11:42:12.920Z,3.72
2017-03-21T11:43:11.899Z,3.95
2017-03-21T11:44:10.909Z,3.27
2017-03-21T11:45:09.920Z,4.10
2017-03-21T11:46:08.448Z,3.75
2017-03-21T11:47:07.426Z,3.73
2017-03-21T11:48:06.454Z,3.68
2017-03-21T11:49:05.415Z,4.18
2017-03-21T11:50:04.416Z,5.03
2017-03-21T11:51:03.415Z,3.68
2017-03-21T11:52:02.379Z,4.32
2017-03-21T11:53:01.394Z,3.87
2017-03-21T11:54:00.392Z,3.20
2017-03-21T11:54:59.379Z,3.55
2017-03-21T11:55:58.396Z,4.07
2017-03-21T11:56:57.373Z,3.82
2017-03-21T11:57:56.379Z,3.55
2017-03-21T11:58:55.408Z,3.70
2017-03-21T11:59:54.381Z,4.58
2017-03-21T12:00:53.435Z,3.65
2017-03-21T12:01:52.427Z,3.35
2017-03-21T12:02:51.415Z,3.92
2017-03-21T12:03:50.369Z,3.28
2017-03-21T12:04:49.012Z,3.08
2017-03-21T12:05:47.975Z,3.95
2017-03-21T12:06:46.948Z,3.40
2017-03-21T12:07:45.924Z,3.48
2017-03-21T12:08:44.908Z,3.57
2017-03-21T12:09:43.886Z,4.65
2017-03-21T12:10:42.926Z,3.40
2017-03-21T12:11:41.606Z,4.28
2017-03-21T12:12:40.654Z,3.08
2017-03-21T12:13:39.776Z,4.08
2017-03-21T12:14:38.415Z,4.15
2017-03-21T12:15:37.412Z,3.08
2017-03-21T12:16:36.439Z,3.68
2017-03-21T12:17:35.410Z,3.63
2017-03-21T12:18:34.383Z,3.95
2017-03-21T12:19:33.335Z,3.95
2017-03-21T12:20:32.362Z,4.02
2017-03-21T12:21:30.935Z,3.75
2017-03-21T12:22:29.884Z,3.92
2017-03-21T12:23:28.895Z,4.05
2017-03-21T12:24:27.842Z,3.88
2017-03-21T12:25:26.883Z,3.85
2017-03-21T12:26:25.963Z,3.88
2017-03-21T12:27:24.544Z,4.03
2017-03-21T12:28:23.508Z,3.98
2017-03-21T12:29:22.122Z,4.27
2017-03-21T12:30:21.101Z,4.05
2017-03-21T12:31:20.042Z,4.23
2017-03-21T12:32:19.092Z,4.42
2017-03-21T12:33:17.668Z,4.03
2017-03-21T12:34:16.664Z,4.08
2017-03-21T12:35:15.680Z,4.05
2017-03-21T12:36:14.715Z,3.83
2017-03-21T12:37:13.684Z,3.87
2017-03-21T12:38:12.704Z,4.47
2017-03-21T12:39:11.724Z,4.45
2017-03-21T12:40:10.756Z,4.00
2017-03-21T12:41:09.722Z,4.02
2017-03-21T12:42:08.765Z,3.90
2017-03-21T12:43:07.840Z,4.80
2017-03-21T12:44:06.910Z,3.88
2017-03-21T12:45:05.911Z,3.97
2017-03-21T12:46:04.900Z,4.22
2017-03-21T12:47:03.891Z,3.78
2017-03-21T12:48:02.864Z,3.65
2017-03-21T12:49:01.486Z,3.30
2017-03-21T12:50:00.539Z,3.48
2017-03-21T12:50:59.876Z,3.65
2017-03-21T12:51:58.869Z,3.30
2017-03-21T12:52:57.467Z,4.03
2017-03-21T12:53:56.493Z,3.78
2017-03-21T12:54:55.239Z,4.08
2017-03-21T12:55:54.328Z,3.95
2017-03-21T12:56:53.315Z,3.68
2017-03-21T12:57:52.288Z,4.03
2017-03-21T12:58:51.235Z,3.70
2017-03-21T12:59:50.971Z,3.28
2017-03-21T13:00:49.968Z,3.82
2017-03-21T13:01:48.968Z,4.23
2017-03-21T13:02:47.591Z,4.17
2017-03-21T13:03:46.563Z,3.65
2017-03-21T13:04:45.538Z,3.73
2017-03-21T13:05:44.854Z,4.05
2017-03-21T13:06:43.883Z,4.07
2017-03-21T13:07:42.916Z,3.93